sensor_id;sensor_type;location;lat;lon;timestamp;pressure;altitude;pressure_sealevel;temperature;humidity
44992;BME280;56865;51.618;7.406;2023-05-27T00:02:19;102138.56;;;29.03;44.63
44992;BME280;56865;51.618;7.406;2023-05-27T00:04:49;102146.00;;;28.87;45.82
44992;BME280;56865;51.618;7.406;2023-05-27T00:07:20;102147.53;;;28.96;45.79
44992;BME280;56865;51.618;7.406;2023-05-27T00:09:50;102143.47;;;28.82;46.08
44992;BME280;56865;51.618;7.406;2023-05-27T00:12:20;102144.22;;;28.88;44.51
44992;BME280;56865;51.618;7.406;2023-05-27T00:14:50;102143.72;;;28.73;45.84
44992;BME280;56865;51.618;7.406;2023-05-27T00:17:23;102135.78;;;28.76;45.74
44992;BME280;56865;51.618;7.406;2023-05-27T00:19:53;102138.41;;;28.76;44.46
44992;BME280;56865;51.618;7.406;2023-05-27T00:22:24;102139.50;;;28.67;43.75
44992;BME280;56865;51.618;7.406;2023-05-27T00:24:55;102140.19;;;28.74;44.63
44992;BME280;56865;51.618;7.406;2023-05-27T00:27:25;102136.13;;;28.61;43.79
44992;BME280;56865;51.618;7.406;2023-05-27T00:29:55;102133.81;;;28.84;45.07
44992;BME280;56865;51.618;7.406;2023-05-27T00:32:28;102143.31;;;28.52;44.90
44992;BME280;56865;51.618;7.406;2023-05-27T00:34:58;102131.78;;;28.60;45.32
44992;BME280;56865;51.618;7.406;2023-05-27T00:37:28;102136.66;;;28.39;45.53
44992;BME280;56865;51.618;7.406;2023-05-27T00:39:58;102137.91;;;28.59;45.33
44992;BME280;56865;51.618;7.406;2023-05-27T00:42:28;102137.28;;;28.50;44.88
44992;BME280;56865;51.618;7.406;2023-05-27T00:44:58;102124.97;;;28.52;46.89
44992;BME280;56865;51.618;7.406;2023-05-27T00:47:33;102123.56;;;28.39;46.84
44992;BME280;56865;51.618;7.406;2023-05-27T00:50:04;102130.84;;;28.26;46.16
44992;BME280;56865;51.618;7.406;2023-05-27T00:52:35;102130.97;;;28.21;46.56
44992;BME280;56865;51.618;7.406;2023-05-27T00:55:07;102129.28;;;28.19;47.46
44992;BME280;56865;51.618;7.406;2023-05-27T00:57:38;102131.75;;;28.24;45.81
44992;BME280;56865;51.618;7.406;2023-05-27T01:00:09;102139.63;;;28.24;45.38
44992;BME280;56865;51.618;7.406;2023-05-27T01:02:42;102132.41;;;28.33;46.38
44992;BME280;56865;51.618;7.406;2023-05-27T01:05:14;102120.03;;;28.01;45.74
44992;BME280;56865;51.618;7.406;2023-05-27T01:07:59;102129.97;;;28.26;45.99
44992;BME280;56865;51.618;7.406;2023-05-27T01:10:36;102123.81;;;28.28;46.51
44992;BME280;56865;51.618;7.406;2023-05-27T01:13:14;102131.72;;;28.27;46.82
44992;BME280;56865;51.618;7.406;2023-05-27T01:15:47;102130.84;;;27.85;46.32
44992;BME280;56865;51.618;7.406;2023-05-27T01:18:22;102126.53;;;28.24;46.40
44992;BME280;56865;51.618;7.406;2023-05-27T01:21:00;102130.91;;;28.23;45.63
44992;BME280;56865;51.618;7.406;2023-05-27T01:23:35;102118.72;;;27.81;45.93
44992;BME280;56865;51.618;7.406;2023-05-27T01:26:06;102123.53;;;28.00;46.67
44992;BME280;56865;51.618;7.406;2023-05-27T01:28:36;102124.13;;;28.14;47.82
44992;BME280;56865;51.618;7.406;2023-05-27T01:31:13;102117.25;;;28.10;45.62
44992;BME280;56865;51.618;7.406;2023-05-27T01:33:49;102120.16;;;27.95;47.87
44992;BME280;56865;51.618;7.406;2023-05-27T01:36:24;102117.38;;;28.04;47.74
44992;BME280;56865;51.618;7.406;2023-05-27T01:38:59;102110.78;;;27.84;47.33
44992;BME280;56865;51.618;7.406;2023-05-27T01:41:30;102112.50;;;27.85;46.14
44992;BME280;56865;51.618;7.406;2023-05-27T01:44:01;102113.53;;;27.78;46.92
44992;BME280;56865;51.618;7.406;2023-05-27T01:46:37;102115.53;;;27.67;46.85
44992;BME280;56865;51.618;7.406;2023-05-27T01:49:22;102102.41;;;27.67;47.99
44992;BME280;56865;51.618;7.406;2023-05-27T01:51:52;102099.72;;;27.71;48.50
44992;BME280;56865;51.618;7.406;2023-05-27T01:54:25;102095.78;;;27.50;48.73
44992;BME280;56865;51.618;7.406;2023-05-27T01:56:55;102107.56;;;27.28;48.32
44992;BME280;56865;51.618;7.406;2023-05-27T01:59:25;102100.59;;;27.27;48.41
44992;BME280;56865;51.618;7.406;2023-05-27T02:01:57;102103.28;;;27.23;49.15
44992;BME280;56865;51.618;7.406;2023-05-27T02:04:27;102106.06;;;27.14;48.53
44992;BME280;56865;51.618;7.406;2023-05-27T02:06:57;102110.91;;;27.36;47.78
44992;BME280;56865;51.618;7.406;2023-05-27T02:09:33;102102.50;;;27.18;48.66
44992;BME280;56865;51.618;7.406;2023-05-27T02:12:04;102110.84;;;26.90;47.98
44992;BME280;56865;51.618;7.406;2023-05-27T02:14:37;102104.94;;;27.28;47.86
44992;BME280;56865;51.618;7.406;2023-05-27T02:17:07;102103.25;;;26.78;48.72
44992;BME280;56865;51.618;7.406;2023-05-27T02:19:37;102097.47;;;27.07;49.22
44992;BME280;56865;51.618;7.406;2023-05-27T02:22:07;102088.28;;;27.32;48.33
44992;BME280;56865;51.618;7.406;2023-05-27T02:24:40;102090.06;;;27.30;49.47
44992;BME280;56865;51.618;7.406;2023-05-27T02:27:10;102089.31;;;27.23;48.60
44992;BME280;56865;51.618;7.406;2023-05-27T02:29:40;102085.13;;;27.14;49.07
44992;BME280;56865;51.618;7.406;2023-05-27T02:32:10;102087.47;;;27.30;47.99
44992;BME280;56865;51.618;7.406;2023-05-27T02:34:40;102095.59;;;27.14;48.23
44992;BME280;56865;51.618;7.406;2023-05-27T02:37:11;102096.00;;;26.92;49.63
44992;BME280;56865;51.618;7.406;2023-05-27T02:39:44;102095.81;;;27.02;48.92
44992;BME280;56865;51.618;7.406;2023-05-27T02:42:14;102098.31;;;27.08;49.51
44992;BME280;56865;51.618;7.406;2023-05-27T02:44:45;102092.06;;;27.17;48.83
44992;BME280;56865;51.618;7.406;2023-05-27T02:47:32;102088.59;;;27.16;47.41
44992;BME280;56865;51.618;7.406;2023-05-27T02:53:39;102082.31;;;27.25;48.86
44992;BME280;56865;51.618;7.406;2023-05-27T02:56:12;102077.19;;;27.19;48.29
44992;BME280;56865;51.618;7.406;2023-05-27T02:59:35;102074.69;;;27.13;47.94
44992;BME280;56865;51.618;7.406;2023-05-27T03:31:07;102080.38;;;26.88;48.57
44992;BME280;56865;51.618;7.406;2023-05-27T03:33:40;102074.91;;;27.00;48.81
44992;BME280;56865;51.618;7.406;2023-05-27T03:36:14;102080.72;;;27.16;49.88
44992;BME280;56865;51.618;7.406;2023-05-27T03:38:50;102070.19;;;27.21;49.49
44992;BME280;56865;51.618;7.406;2023-05-27T03:41:43;102061.22;;;27.31;48.51
44992;BME280;56865;51.618;7.406;2023-05-27T03:44:27;102062.88;;;27.35;48.78
44992;BME280;56865;51.618;7.406;2023-05-27T03:47:15;102064.25;;;27.11;49.38
44992;BME280;56865;51.618;7.406;2023-05-27T03:49:56;102057.22;;;27.15;49.41
44992;BME280;56865;51.618;7.406;2023-05-27T03:52:46;102063.38;;;27.11;48.03
44992;BME280;56865;51.618;7.406;2023-05-27T03:55:56;102060.09;;;27.46;47.94
44992;BME280;56865;51.618;7.406;2023-05-27T03:59:12;102053.47;;;27.27;49.97
44992;BME280;56865;51.618;7.406;2023-05-27T04:02:43;102049.31;;;27.16;49.62
44992;BME280;56865;51.618;7.406;2023-05-27T04:13:19;102048.09;;;27.33;49.96
44992;BME280;56865;51.618;7.406;2023-05-27T04:17:10;102053.69;;;27.16;50.60
44992;BME280;56865;51.618;7.406;2023-05-27T04:32:40;102061.94;;;27.41;51.45
44992;BME280;56865;51.618;7.406;2023-05-27T04:35:23;102067.53;;;27.22;50.89
44992;BME280;56865;51.618;7.406;2023-05-27T04:37:53;102072.56;;;27.32;50.37
44992;BME280;56865;51.618;7.406;2023-05-27T04:44:09;102069.69;;;27.46;51.31
44992;BME280;56865;51.618;7.406;2023-05-27T04:46:40;102066.00;;;27.54;50.22
44992;BME280;56865;51.618;7.406;2023-05-27T04:49:14;102057.75;;;27.73;49.62
44992;BME280;56865;51.618;7.406;2023-05-27T04:51:44;102059.53;;;27.71;49.65
44992;BME280;56865;51.618;7.406;2023-05-27T04:54:15;102059.69;;;27.65;50.21
44992;BME280;56865;51.618;7.406;2023-05-27T04:56:45;102062.16;;;27.71;48.61
44992;BME280;56865;51.618;7.406;2023-05-27T04:59:19;102062.13;;;27.72;48.41
44992;BME280;56865;51.618;7.406;2023-05-27T05:01:49;102059.88;;;27.95;49.17
44992;BME280;56865;51.618;7.406;2023-05-27T05:04:39;102063.31;;;27.97;48.07
44992;BME280;56865;51.618;7.406;2023-05-27T05:07:09;102058.03;;;27.98;48.63
44992;BME280;56865;51.618;7.406;2023-05-27T05:09:40;102053.28;;;28.16;49.77
44992;BME280;56865;51.618;7.406;2023-05-27T05:12:10;102049.53;;;28.28;50.94
44992;BME280;56865;51.618;7.406;2023-05-27T05:14:40;102050.91;;;28.41;50.00
44992;BME280;56865;51.618;7.406;2023-05-27T05:17:10;102054.84;;;28.59;49.53
44992;BME280;56865;51.618;7.406;2023-05-27T05:19:44;102063.66;;;28.57;48.78
44992;BME280;56865;51.618;7.406;2023-05-27T05:22:14;102056.53;;;28.60;49.23
44992;BME280;56865;51.618;7.406;2023-05-27T05:24:46;102053.38;;;28.47;47.75
44992;BME280;56865;51.618;7.406;2023-05-27T05:27:16;102044.53;;;28.86;49.11
44992;BME280;56865;51.618;7.406;2023-05-27T05:29:46;102044.88;;;29.37;48.03
44992;BME280;56865;51.618;7.406;2023-05-27T05:32:16;102046.03;;;28.95;47.10
44992;BME280;56865;51.618;7.406;2023-05-27T05:37:41;102046.31;;;29.15;47.74
44992;BME280;56865;51.618;7.406;2023-05-27T05:40:11;102031.34;;;29.19;47.59
44992;BME280;56865;51.618;7.406;2023-05-27T05:42:41;102030.25;;;29.26;47.27
44992;BME280;56865;51.618;7.406;2023-05-27T05:45:14;102035.84;;;29.45;47.58
44992;BME280;56865;51.618;7.406;2023-05-27T05:47:45;102031.13;;;29.85;48.88
44992;BME280;56865;51.618;7.406;2023-05-27T05:50:17;102034.72;;;29.54;47.58
44992;BME280;56865;51.618;7.406;2023-05-27T05:52:57;102023.81;;;29.95;48.88
44992;BME280;56865;51.618;7.406;2023-05-27T05:55:56;102033.41;;;29.97;47.46
44992;BME280;56865;51.618;7.406;2023-05-27T05:58:31;102039.31;;;30.04;49.81
44992;BME280;56865;51.618;7.406;2023-05-27T06:01:04;102045.31;;;30.08;48.39
44992;BME280;56865;51.618;7.406;2023-05-27T06:03:35;102048.34;;;29.95;47.08
44992;BME280;56865;51.618;7.406;2023-05-27T06:06:06;102055.28;;;30.52;48.31
44992;BME280;56865;51.618;7.406;2023-05-27T06:08:43;102061.78;;;30.67;48.92
44992;BME280;56865;51.618;7.406;2023-05-27T06:11:12;102066.00;;;30.96;49.42
44992;BME280;56865;51.618;7.406;2023-05-27T06:13:47;102064.94;;;31.25;46.96
44992;BME280;56865;51.618;7.406;2023-05-27T06:16:19;102065.47;;;31.11;50.14
44992;BME280;56865;51.618;7.406;2023-05-27T06:18:49;102058.31;;;31.39;47.39
44992;BME280;56865;51.618;7.406;2023-05-27T06:21:20;102065.09;;;31.90;47.38
44992;BME280;56865;51.618;7.406;2023-05-27T06:23:52;102066.59;;;32.18;46.86
44992;BME280;56865;51.618;7.406;2023-05-27T06:26:22;102064.47;;;32.28;45.15
44992;BME280;56865;51.618;7.406;2023-05-27T06:28:52;102059.78;;;32.35;45.32
44992;BME280;56865;51.618;7.406;2023-05-27T06:31:22;102057.34;;;32.30;44.56
44992;BME280;56865;51.618;7.406;2023-05-27T06:33:53;102059.31;;;32.25;46.09
44992;BME280;56865;51.618;7.406;2023-05-27T06:36:23;102060.59;;;32.15;44.39
44992;BME280;56865;51.618;7.406;2023-05-27T06:38:55;102060.50;;;32.59;45.84
44992;BME280;56865;51.618;7.406;2023-05-27T06:41:26;102058.69;;;32.82;45.36
44992;BME280;56865;51.618;7.406;2023-05-27T06:43:56;102049.69;;;32.86;46.89
44992;BME280;56865;51.618;7.406;2023-05-27T06:46:26;102046.41;;;33.19;45.66
44992;BME280;56865;51.618;7.406;2023-05-27T06:48:55;102041.94;;;33.21;45.26
44992;BME280;56865;51.618;7.406;2023-05-27T06:51:25;102038.47;;;32.60;44.31
44992;BME280;56865;51.618;7.406;2023-05-27T06:53:59;102032.84;;;33.08;45.98
44992;BME280;56865;51.618;7.406;2023-05-27T06:56:29;102028.22;;;32.73;47.72
44992;BME280;56865;51.618;7.406;2023-05-27T06:58:58;102028.78;;;33.19;46.46
44992;BME280;56865;51.618;7.406;2023-05-27T07:01:28;102029.69;;;32.99;46.87
44992;BME280;56865;51.618;7.406;2023-05-27T07:03:59;102031.06;;;33.27;44.95
44992;BME280;56865;51.618;7.406;2023-05-27T07:06:28;102031.28;;;32.84;43.83
44992;BME280;56865;51.618;7.406;2023-05-27T07:09:01;102031.00;;;33.10;42.53
44992;BME280;56865;51.618;7.406;2023-05-27T07:11:31;102030.19;;;33.27;43.61
44992;BME280;56865;51.618;7.406;2023-05-27T07:14:01;102027.00;;;33.39;44.25
44992;BME280;56865;51.618;7.406;2023-05-27T07:16:30;102022.31;;;33.63;44.31
44992;BME280;56865;51.618;7.406;2023-05-27T07:19:00;102021.88;;;33.73;43.90
44992;BME280;56865;51.618;7.406;2023-05-27T07:21:30;102025.91;;;33.81;43.12
44992;BME280;56865;51.618;7.406;2023-05-27T07:24:03;102021.63;;;33.77;44.13
44992;BME280;56865;51.618;7.406;2023-05-27T07:26:33;102023.91;;;33.67;45.85
44992;BME280;56865;51.618;7.406;2023-05-27T07:29:03;102025.06;;;33.79;44.42
44992;BME280;56865;51.618;7.406;2023-05-27T07:31:33;102020.63;;;33.80;43.97
44992;BME280;56865;51.618;7.406;2023-05-27T07:34:03;102016.28;;;33.61;43.83
44992;BME280;56865;51.618;7.406;2023-05-27T07:36:33;102006.78;;;33.75;45.73
44992;BME280;56865;51.618;7.406;2023-05-27T07:39:07;101996.28;;;33.73;45.87
44992;BME280;56865;51.618;7.406;2023-05-27T07:41:36;101997.47;;;33.67;43.88
44992;BME280;56865;51.618;7.406;2023-05-27T07:44:06;101995.56;;;33.69;46.07
44992;BME280;56865;51.618;7.406;2023-05-27T07:46:36;102000.28;;;33.82;44.44
44992;BME280;56865;51.618;7.406;2023-05-27T07:49:06;101990.72;;;33.43;44.42
44992;BME280;56865;51.618;7.406;2023-05-27T07:51:36;101984.78;;;33.74;46.06
44992;BME280;56865;51.618;7.406;2023-05-27T07:54:09;101987.00;;;33.64;42.77
44992;BME280;56865;51.618;7.406;2023-05-27T07:56:39;101986.22;;;33.62;46.15
44992;BME280;56865;51.618;7.406;2023-05-27T07:59:09;101989.13;;;33.75;43.70
44992;BME280;56865;51.618;7.406;2023-05-27T08:01:39;101994.66;;;33.70;45.49
44992;BME280;56865;51.618;7.406;2023-05-27T08:04:08;101980.69;;;34.03;43.06
44992;BME280;56865;51.618;7.406;2023-05-27T08:06:49;101982.31;;;34.06;44.27
44992;BME280;56865;51.618;7.406;2023-05-27T08:09:22;101985.25;;;33.65;46.17
44992;BME280;56865;51.618;7.406;2023-05-27T08:11:52;101977.97;;;33.88;45.87
44992;BME280;56865;51.618;7.406;2023-05-27T08:14:21;101976.59;;;33.61;47.40
44992;BME280;56865;51.618;7.406;2023-05-27T08:16:54;101974.63;;;33.84;45.56
44992;BME280;56865;51.618;7.406;2023-05-27T08:19:24;101973.34;;;33.37;44.81
44992;BME280;56865;51.618;7.406;2023-05-27T08:21:54;101965.19;;;33.42;42.60
44992;BME280;56865;51.618;7.406;2023-05-27T08:24:27;101959.69;;;34.00;45.32
44992;BME280;56865;51.618;7.406;2023-05-27T08:26:57;101944.91;;;34.30;43.99
44992;BME280;56865;51.618;7.406;2023-05-27T08:29:27;101938.50;;;34.00;42.61
44992;BME280;56865;51.618;7.406;2023-05-27T08:31:57;101938.84;;;34.45;42.81
44992;BME280;56865;51.618;7.406;2023-05-27T08:34:27;101949.09;;;34.67;42.35
44992;BME280;56865;51.618;7.406;2023-05-27T08:36:57;101945.75;;;33.97;43.29
44992;BME280;56865;51.618;7.406;2023-05-27T08:39:29;101950.81;;;34.01;42.17
44992;BME280;56865;51.618;7.406;2023-05-27T08:41:59;101947.06;;;34.06;42.48
44992;BME280;56865;51.618;7.406;2023-05-27T08:44:30;101941.31;;;34.48;44.04
44992;BME280;56865;51.618;7.406;2023-05-27T08:47:00;101936.44;;;34.23;41.93
44992;BME280;56865;51.618;7.406;2023-05-27T08:49:30;101937.97;;;34.45;44.71
44992;BME280;56865;51.618;7.406;2023-05-27T08:52:00;101934.66;;;34.57;43.41
44992;BME280;56865;51.618;7.406;2023-05-27T08:54:32;101932.69;;;34.27;41.65
44992;BME280;56865;51.618;7.406;2023-05-27T08:57:04;101921.75;;;34.00;41.93
44992;BME280;56865;51.618;7.406;2023-05-27T08:59:36;101919.63;;;34.42;44.41
44992;BME280;56865;51.618;7.406;2023-05-27T09:02:08;101916.47;;;34.51;42.59
44992;BME280;56865;51.618;7.406;2023-05-27T09:04:40;101908.25;;;34.40;43.51
44992;BME280;56865;51.618;7.406;2023-05-27T09:07:10;101911.69;;;34.24;44.58
44992;BME280;56865;51.618;7.406;2023-05-27T09:09:42;101907.38;;;34.89;42.92
44992;BME280;56865;51.618;7.406;2023-05-27T09:12:12;101904.03;;;33.84;42.46
44992;BME280;56865;51.618;7.406;2023-05-27T09:14:51;101901.53;;;34.66;44.03
44992;BME280;56865;51.618;7.406;2023-05-27T09:17:22;101906.72;;;34.51;41.99
44992;BME280;56865;51.618;7.406;2023-05-27T09:19:52;101903.31;;;34.81;42.29
44992;BME280;56865;51.618;7.406;2023-05-27T09:22:23;101901.34;;;34.53;41.55
44992;BME280;56865;51.618;7.406;2023-05-27T09:24:56;101898.09;;;34.64;42.20
44992;BME280;56865;51.618;7.406;2023-05-27T09:27:26;101898.88;;;34.66;43.57
44992;BME280;56865;51.618;7.406;2023-05-27T09:29:56;101904.00;;;34.85;42.58
44992;BME280;56865;51.618;7.406;2023-05-27T09:32:26;101891.56;;;34.38;40.95
44992;BME280;56865;51.618;7.406;2023-05-27T09:34:56;101889.03;;;34.52;44.12
44992;BME280;56865;51.618;7.406;2023-05-27T09:37:27;101892.13;;;34.76;40.83
44992;BME280;56865;51.618;7.406;2023-05-27T09:40:04;101890.47;;;34.58;40.04
44992;BME280;56865;51.618;7.406;2023-05-27T09:42:41;101876.66;;;34.37;44.63
44992;BME280;56865;51.618;7.406;2023-05-27T09:47:42;101882.00;;;34.35;40.23
44992;BME280;56865;51.618;7.406;2023-05-27T09:50:12;101879.38;;;33.84;38.93
44992;BME280;56865;51.618;7.406;2023-05-27T09:52:44;101876.66;;;34.69;39.77
44992;BME280;56865;51.618;7.406;2023-05-27T09:55:27;101874.78;;;35.03;41.24
44992;BME280;56865;51.618;7.406;2023-05-27T09:57:58;101871.03;;;34.91;42.49
44992;BME280;56865;51.618;7.406;2023-05-27T10:00:28;101871.44;;;34.51;37.69
44992;BME280;56865;51.618;7.406;2023-05-27T10:03:00;101866.81;;;34.55;38.16
44992;BME280;56865;51.618;7.406;2023-05-27T10:05:30;101857.50;;;34.47;39.39
44992;BME280;56865;51.618;7.406;2023-05-27T10:08:01;101851.78;;;34.39;43.14
44992;BME280;56865;51.618;7.406;2023-05-27T10:10:46;101859.56;;;34.42;40.60
44992;BME280;56865;51.618;7.406;2023-05-27T10:13:16;101849.63;;;34.78;42.29
44992;BME280;56865;51.618;7.406;2023-05-27T10:15:50;101853.75;;;34.83;38.22
44992;BME280;56865;51.618;7.406;2023-05-27T10:18:23;101849.28;;;34.84;41.49
44992;BME280;56865;51.618;7.406;2023-05-27T10:20:54;101848.59;;;35.12;40.49
44992;BME280;56865;51.618;7.406;2023-05-27T10:23:25;101851.00;;;34.85;39.76
44992;BME280;56865;51.618;7.406;2023-05-27T10:26:00;101844.81;;;35.17;41.94
44992;BME280;56865;51.618;7.406;2023-05-27T10:28:30;101849.19;;;35.48;40.70
44992;BME280;56865;51.618;7.406;2023-05-27T10:31:03;101847.44;;;35.33;39.13
44992;BME280;56865;51.618;7.406;2023-05-27T10:33:36;101843.03;;;35.17;38.94
44992;BME280;56865;51.618;7.406;2023-05-27T10:36:07;101841.97;;;34.89;37.70
44992;BME280;56865;51.618;7.406;2023-05-27T10:38:37;101840.50;;;35.30;38.45
44992;BME280;56865;51.618;7.406;2023-05-27T10:41:10;101832.13;;;35.38;41.45
44992;BME280;56865;51.618;7.406;2023-05-27T10:43:39;101830.84;;;34.98;39.81
44992;BME280;56865;51.618;7.406;2023-05-27T10:46:11;101821.53;;;35.38;38.94
44992;BME280;56865;51.618;7.406;2023-05-27T10:48:41;101833.41;;;35.00;38.24
44992;BME280;56865;51.618;7.406;2023-05-27T10:51:11;101826.81;;;35.38;41.05
44992;BME280;56865;51.618;7.406;2023-05-27T10:53:41;101820.22;;;35.59;40.35
44992;BME280;56865;51.618;7.406;2023-05-27T10:56:16;101821.56;;;35.67;40.99
44992;BME280;56865;51.618;7.406;2023-05-27T10:58:47;101816.44;;;35.78;40.72
44992;BME280;56865;51.618;7.406;2023-05-27T11:01:18;101806.03;;;35.30;36.75
44992;BME280;56865;51.618;7.406;2023-05-27T11:03:48;101807.16;;;35.56;38.16
44992;BME280;56865;51.618;7.406;2023-05-27T11:06:18;101811.88;;;35.66;37.33
44992;BME280;56865;51.618;7.406;2023-05-27T11:08:51;101807.31;;;35.53;40.56
44992;BME280;56865;51.618;7.406;2023-05-27T11:11:24;101801.00;;;35.70;37.53
44992;BME280;56865;51.618;7.406;2023-05-27T11:13:54;101795.56;;;35.86;38.29
44992;BME280;56865;51.618;7.406;2023-05-27T11:16:28;101794.09;;;35.68;36.91
44992;BME280;56865;51.618;7.406;2023-05-27T11:18:57;101787.72;;;35.85;35.90
44992;BME280;56865;51.618;7.406;2023-05-27T11:21:27;101780.34;;;35.75;38.40
44992;BME280;56865;51.618;7.406;2023-05-27T11:23:57;101779.47;;;36.18;38.65
44992;BME280;56865;51.618;7.406;2023-05-27T11:26:29;101789.09;;;35.92;37.25
44992;BME280;56865;51.618;7.406;2023-05-27T11:28:59;101776.59;;;36.36;36.85
44992;BME280;56865;51.618;7.406;2023-05-27T11:31:29;101773.63;;;35.84;37.55
44992;BME280;56865;51.618;7.406;2023-05-27T11:33:59;101772.78;;;35.98;38.73
44992;BME280;56865;51.618;7.406;2023-05-27T11:36:29;101757.13;;;36.08;40.83
44992;BME280;56865;51.618;7.406;2023-05-27T11:39:00;101760.72;;;36.49;40.01
44992;BME280;56865;51.618;7.406;2023-05-27T11:41:33;101757.56;;;36.56;40.78
44992;BME280;56865;51.618;7.406;2023-05-27T11:44:04;101748.16;;;36.23;40.12
44992;BME280;56865;51.618;7.406;2023-05-27T11:46:34;101752.78;;;36.34;36.96
44992;BME280;56865;51.618;7.406;2023-05-27T11:49:05;101751.91;;;36.48;38.83
44992;BME280;56865;51.618;7.406;2023-05-27T11:51:36;101746.69;;;36.47;36.47
44992;BME280;56865;51.618;7.406;2023-05-27T11:54:06;101741.72;;;36.55;37.92
44992;BME280;56865;51.618;7.406;2023-05-27T11:56:39;101744.63;;;36.65;35.94
44992;BME280;56865;51.618;7.406;2023-05-27T11:59:08;101731.34;;;36.37;37.80
44992;BME280;56865;51.618;7.406;2023-05-27T12:01:38;101731.88;;;36.57;40.77
44992;BME280;56865;51.618;7.406;2023-05-27T12:04:09;101737.03;;;36.31;37.17
44992;BME280;56865;51.618;7.406;2023-05-27T12:06:39;101743.78;;;36.22;36.65
44992;BME280;56865;51.618;7.406;2023-05-27T12:09:08;101731.34;;;36.37;35.29
44992;BME280;56865;51.618;7.406;2023-05-27T12:11:41;101729.56;;;36.23;35.32
44992;BME280;56865;51.618;7.406;2023-05-27T12:14:10;101730.41;;;36.66;34.97
44992;BME280;56865;51.618;7.406;2023-05-27T12:16:40;101730.03;;;36.85;36.37
44992;BME280;56865;51.618;7.406;2023-05-27T12:19:10;101716.13;;;36.67;36.79
44992;BME280;56865;51.618;7.406;2023-05-27T12:21:40;101716.44;;;36.35;35.64
44992;BME280;56865;51.618;7.406;2023-05-27T12:24:10;101708.63;;;35.48;35.58
44992;BME280;56865;51.618;7.406;2023-05-27T12:26:42;101702.34;;;35.92;35.76
44992;BME280;56865;51.618;7.406;2023-05-27T12:29:13;101702.22;;;36.36;35.42
44992;BME280;56865;51.618;7.406;2023-05-27T12:31:42;101689.63;;;36.92;36.23
44992;BME280;56865;51.618;7.406;2023-05-27T12:34:12;101686.72;;;36.83;35.59
44992;BME280;56865;51.618;7.406;2023-05-27T12:36:42;101693.47;;;36.88;36.03
44992;BME280;56865;51.618;7.406;2023-05-27T12:39:12;101684.66;;;37.14;37.67
44992;BME280;56865;51.618;7.406;2023-05-27T12:41:44;101674.66;;;37.17;38.97
44992;BME280;56865;51.618;7.406;2023-05-27T12:44:14;101679.66;;;36.96;36.19
44992;BME280;56865;51.618;7.406;2023-05-27T12:46:45;101688.53;;;36.69;34.98
44992;BME280;56865;51.618;7.406;2023-05-27T12:49:15;101681.13;;;37.26;35.35
44992;BME280;56865;51.618;7.406;2023-05-27T12:51:45;101670.06;;;37.32;37.48
44992;BME280;56865;51.618;7.406;2023-05-27T12:54:15;101675.91;;;37.24;34.82
44992;BME280;56865;51.618;7.406;2023-05-27T12:56:47;101675.91;;;37.87;37.82
44992;BME280;56865;51.618;7.406;2023-05-27T12:59:18;101674.44;;;37.83;35.38
44992;BME280;56865;51.618;7.406;2023-05-27T13:01:48;101669.88;;;37.85;36.33
44992;BME280;56865;51.618;7.406;2023-05-27T13:04:19;101669.19;;;37.58;34.71
44992;BME280;56865;51.618;7.406;2023-05-27T13:06:51;101663.63;;;37.61;34.75
44992;BME280;56865;51.618;7.406;2023-05-27T13:09:21;101669.81;;;37.98;34.10
44992;BME280;56865;51.618;7.406;2023-05-27T13:11:53;101662.09;;;37.82;33.80
44992;BME280;56865;51.618;7.406;2023-05-27T13:14:24;101652.09;;;38.10;32.63
44992;BME280;56865;51.618;7.406;2023-05-27T13:16:54;101660.25;;;38.44;34.79
44992;BME280;56865;51.618;7.406;2023-05-27T13:19:23;101660.44;;;38.30;31.92
44992;BME280;56865;51.618;7.406;2023-05-27T13:21:53;101663.41;;;39.08;33.81
44992;BME280;56865;51.618;7.406;2023-05-27T13:24:23;101649.59;;;39.03;33.23
44992;BME280;56865;51.618;7.406;2023-05-27T13:26:55;101645.28;;;38.66;32.74
44992;BME280;56865;51.618;7.406;2023-05-27T13:29:25;101636.84;;;38.95;32.96
44992;BME280;56865;51.618;7.406;2023-05-27T13:31:56;101638.44;;;39.31;32.83
44992;BME280;56865;51.618;7.406;2023-05-27T13:34:27;101640.28;;;39.86;31.05
44992;BME280;56865;51.618;7.406;2023-05-27T13:36:56;101635.16;;;39.94;33.56
44992;BME280;56865;51.618;7.406;2023-05-27T13:39:26;101625.16;;;39.64;31.48
44992;BME280;56865;51.618;7.406;2023-05-27T13:41:59;101630.94;;;40.45;32.44
44992;BME280;56865;51.618;7.406;2023-05-27T13:44:29;101627.84;;;40.08;29.07
44992;BME280;56865;51.618;7.406;2023-05-27T13:46:58;101624.03;;;40.64;30.08
44992;BME280;56865;51.618;7.406;2023-05-27T13:49:28;101616.69;;;40.56;29.59
44992;BME280;56865;51.618;7.406;2023-05-27T13:51:58;101602.50;;;40.97;33.21
44992;BME280;56865;51.618;7.406;2023-05-27T13:54:28;101614.31;;;41.35;29.83
44992;BME280;56865;51.618;7.406;2023-05-27T13:57:01;101608.84;;;41.26;29.96
44992;BME280;56865;51.618;7.406;2023-05-27T13:59:31;101619.94;;;41.92;30.16
44992;BME280;56865;51.618;7.406;2023-05-27T14:02:01;101607.34;;;41.03;29.58
44992;BME280;56865;51.618;7.406;2023-05-27T14:04:32;101612.78;;;41.32;30.52
44992;BME280;56865;51.618;7.406;2023-05-27T14:07:02;101594.84;;;41.54;29.80
44992;BME280;56865;51.618;7.406;2023-05-27T14:09:32;101590.19;;;41.66;30.45
44992;BME280;56865;51.618;7.406;2023-05-27T14:12:05;101581.38;;;41.34;33.69
44992;BME280;56865;51.618;7.406;2023-05-27T14:14:35;101573.41;;;41.54;31.96
44992;BME280;56865;51.618;7.406;2023-05-27T14:17:07;101565.44;;;41.23;35.06
44992;BME280;56865;51.618;7.406;2023-05-27T14:19:36;101569.94;;;41.32;30.51
44992;BME280;56865;51.618;7.406;2023-05-27T14:22:06;101570.00;;;41.42;28.99